sensor_id;sensor_type;location;lat;lon;timestamp;temperature;humidity
39777;DHT22;25453;48.162;14.510;2023-04-24T00:02:10;15.20;68.40
39777;DHT22;25453;48.162;14.510;2023-04-24T00:04:38;15.30;68.30
39777;DHT22;25453;48.162;14.510;2023-04-24T00:07:08;15.30;68.20
39777;DHT22;25453;48.162;14.510;2023-04-24T00:09:36;15.30;68.20
39777;DHT22;25453;48.162;14.510;2023-04-24T00:12:03;15.30;68.20
39777;DHT22;25453;48.162;14.510;2023-04-24T00:14:31;15.30;68.10
39777;DHT22;25453;48.162;14.510;2023-04-24T00:16:58;15.20;68.20
39777;DHT22;25453;48.162;14.510;2023-04-24T00:19:27;15.30;68.30
39777;DHT22;25453;48.162;14.510;2023-04-24T00:21:54;15.30;68.40
39777;DHT22;25453;48.162;14.510;2023-04-24T00:24:22;15.40;68.40
39777;DHT22;25453;48.162;14.510;2023-04-24T00:26:52;15.40;68.40
39777;DHT22;25453;48.162;14.510;2023-04-24T00:29:19;15.40;68.30
39777;DHT22;25453;48.162;14.510;2023-04-24T00:31:46;15.50;68.30
39777;DHT22;25453;48.162;14.510;2023-04-24T00:34:13;15.50;68.20
39777;DHT22;25453;48.162;14.510;2023-04-24T00:36:40;15.50;68.10
39777;DHT22;25453;48.162;14.510;2023-04-24T00:39:08;15.60;67.90
39777;DHT22;25453;48.162;14.510;2023-04-24T00:41:38;15.60;67.90
39777;DHT22;25453;48.162;14.510;2023-04-24T00:44:05;15.60;67.90
39777;DHT22;25453;48.162;14.510;2023-04-24T00:46:32;15.60;67.90
39777;DHT22;25453;48.162;14.510;2023-04-24T00:48:59;15.60;67.80
39777;DHT22;25453;48.162;14.510;2023-04-24T00:51:27;15.60;67.90
39777;DHT22;25453;48.162;14.510;2023-04-24T00:53:57;15.60;67.90
39777;DHT22;25453;48.162;14.510;2023-04-24T00:56:24;15.60;67.90
39777;DHT22;25453;48.162;14.510;2023-04-24T00:58:53;15.60;68.00
39777;DHT22;25453;48.162;14.510;2023-04-24T01:01:20;15.60;68.20
39777;DHT22;25453;48.162;14.510;2023-04-24T01:03:51;15.60;68.30
39777;DHT22;25453;48.162;14.510;2023-04-24T01:06:19;15.60;68.50
39777;DHT22;25453;48.162;14.510;2023-04-24T01:08:47;15.50;68.60
39777;DHT22;25453;48.162;14.510;2023-04-24T01:11:14;15.50;68.80
39777;DHT22;25453;48.162;14.510;2023-04-24T01:13:42;15.50;69.10
39777;DHT22;25453;48.162;14.510;2023-04-24T01:16:13;15.50;69.20
39777;DHT22;25453;48.162;14.510;2023-04-24T01:18:41;15.50;69.40
39777;DHT22;25453;48.162;14.510;2023-04-24T01:21:08;15.50;69.50
39777;DHT22;25453;48.162;14.510;2023-04-24T01:23:38;15.40;69.70
39777;DHT22;25453;48.162;14.510;2023-04-24T01:26:06;15.50;69.80
39777;DHT22;25453;48.162;14.510;2023-04-24T01:28:33;15.40;69.80
39777;DHT22;25453;48.162;14.510;2023-04-24T01:31:00;15.40;69.80
39777;DHT22;25453;48.162;14.510;2023-04-24T01:33:28;15.40;70.00
39777;DHT22;25453;48.162;14.510;2023-04-24T01:35:56;15.30;70.00
39777;DHT22;25453;48.162;14.510;2023-04-24T01:38:24;15.30;70.10
39777;DHT22;25453;48.162;14.510;2023-04-24T01:40:51;15.20;70.20
39777;DHT22;25453;48.162;14.510;2023-04-24T01:43:19;15.20;70.30
39777;DHT22;25453;48.162;14.510;2023-04-24T01:45:47;15.20;70.40
39777;DHT22;25453;48.162;14.510;2023-04-24T01:48:14;15.10;70.40
39777;DHT22;25453;48.162;14.510;2023-04-24T01:50:41;15.10;70.50
39777;DHT22;25453;48.162;14.510;2023-04-24T01:53:09;15.10;70.60
39777;DHT22;25453;48.162;14.510;2023-04-24T01:55:42;15.10;70.60
39777;DHT22;25453;48.162;14.510;2023-04-24T01:58:09;15.10;70.70
39777;DHT22;25453;48.162;14.510;2023-04-24T02:00:37;15.10;70.70
39777;DHT22;25453;48.162;14.510;2023-04-24T02:03:04;15.10;70.70
39777;DHT22;25453;48.162;14.510;2023-04-24T02:05:32;15.10;70.70
39777;DHT22;25453;48.162;14.510;2023-04-24T02:08:00;15.10;70.90
39777;DHT22;25453;48.162;14.510;2023-04-24T02:10:27;15.10;71.00
39777;DHT22;25453;48.162;14.510;2023-04-24T02:12:54;15.10;71.00
39777;DHT22;25453;48.162;14.510;2023-04-24T02:15:22;15.10;71.00
39777;DHT22;25453;48.162;14.510;2023-04-24T02:17:49;15.10;71.20
39777;DHT22;25453;48.162;14.510;2023-04-24T02:20:16;15.00;71.30
39777;DHT22;25453;48.162;14.510;2023-04-24T02:22:45;15.00;71.40
39777;DHT22;25453;48.162;14.510;2023-04-24T02:25:12;15.00;71.50
39777;DHT22;25453;48.162;14.510;2023-04-24T02:27:41;15.10;71.60
39777;DHT22;25453;48.162;14.510;2023-04-24T02:30:09;15.10;71.70
39777;DHT22;25453;48.162;14.510;2023-04-24T02:32:37;15.10;71.70
39777;DHT22;25453;48.162;14.510;2023-04-24T02:35:05;15.10;71.70
39777;DHT22;25453;48.162;14.510;2023-04-24T02:37:33;15.10;71.70
39777;DHT22;25453;48.162;14.510;2023-04-24T02:40:00;15.10;71.70
39777;DHT22;25453;48.162;14.510;2023-04-24T02:42:27;15.00;71.80
39777;DHT22;25453;48.162;14.510;2023-04-24T02:44:55;15.00;71.80
39777;DHT22;25453;48.162;14.510;2023-04-24T02:47:22;15.00;71.80
39777;DHT22;25453;48.162;14.510;2023-04-24T02:49:49;15.00;71.90
39777;DHT22;25453;48.162;14.510;2023-04-24T02:52:17;15.00;72.00
39777;DHT22;25453;48.162;14.510;2023-04-24T02:54:44;15.00;72.10
39777;DHT22;25453;48.162;14.510;2023-04-24T02:57:11;15.00;72.10
39777;DHT22;25453;48.162;14.510;2023-04-24T02:59:38;15.00;72.20
39777;DHT22;25453;48.162;14.510;2023-04-24T03:02:06;15.00;72.20
39777;DHT22;25453;48.162;14.510;2023-04-24T03:04:33;15.00;72.30
39777;DHT22;25453;48.162;14.510;2023-04-24T03:07:01;15.00;72.30
39777;DHT22;25453;48.162;14.510;2023-04-24T03:09:28;15.00;72.30
39777;DHT22;25453;48.162;14.510;2023-04-24T03:11:55;15.00;72.40
39777;DHT22;25453;48.162;14.510;2023-04-24T03:14:23;15.00;72.40
39777;DHT22;25453;48.162;14.510;2023-04-24T03:16:51;15.00;72.50
39777;DHT22;25453;48.162;14.510;2023-04-24T03:19:18;15.10;72.50
39777;DHT22;25453;48.162;14.510;2023-04-24T03:21:46;15.10;72.50
39777;DHT22;25453;48.162;14.510;2023-04-24T03:24:13;15.10;72.50
39777;DHT22;25453;48.162;14.510;2023-04-24T03:26:40;15.10;72.50
39777;DHT22;25453;48.162;14.510;2023-04-24T03:29:07;15.10;72.50
39777;DHT22;25453;48.162;14.510;2023-04-24T03:31:34;15.10;72.50
39777;DHT22;25453;48.162;14.510;2023-04-24T03:34:02;15.10;72.50
39777;DHT22;25453;48.162;14.510;2023-04-24T03:36:29;15.10;72.60
39777;DHT22;25453;48.162;14.510;2023-04-24T03:38:59;15.10;72.50
39777;DHT22;25453;48.162;14.510;2023-04-24T03:41:27;15.20;72.60
39777;DHT22;25453;48.162;14.510;2023-04-24T03:43:54;15.10;72.50
39777;DHT22;25453;48.162;14.510;2023-04-24T03:46:21;15.20;72.60
39777;DHT22;25453;48.162;14.510;2023-04-24T03:48:48;15.20;72.60
39777;DHT22;25453;48.162;14.510;2023-04-24T03:51:16;15.20;72.60
39777;DHT22;25453;48.162;14.510;2023-04-24T03:53:43;15.20;72.60
39777;DHT22;25453;48.162;14.510;2023-04-24T03:56:11;15.20;72.60
39777;DHT22;25453;48.162;14.510;2023-04-24T03:58:38;15.10;72.60
39777;DHT22;25453;48.162;14.510;2023-04-24T04:01:05;15.10;72.70
39777;DHT22;25453;48.162;14.510;2023-04-24T04:03:33;15.10;72.80
39777;DHT22;25453;48.162;14.510;2023-04-24T04:06:01;15.10;72.70
39777;DHT22;25453;48.162;14.510;2023-04-24T04:08:28;15.10;72.70
39777;DHT22;25453;48.162;14.510;2023-04-24T04:10:55;15.10;72.70
39777;DHT22;25453;48.162;14.510;2023-04-24T04:13:23;15.10;72.80
39777;DHT22;25453;48.162;14.510;2023-04-24T04:15:50;15.10;72.80
39777;DHT22;25453;48.162;14.510;2023-04-24T04:18:18;15.20;72.80
39777;DHT22;25453;48.162;14.510;2023-04-24T04:20:45;15.20;72.80
39777;DHT22;25453;48.162;14.510;2023-04-24T04:23:12;15.10;72.80
39777;DHT22;25453;48.162;14.510;2023-04-24T04:25:40;15.10;72.80
39777;DHT22;25453;48.162;14.510;2023-04-24T04:28:07;15.10;72.80
39777;DHT22;25453;48.162;14.510;2023-04-24T04:30:34;15.10;72.80
39777;DHT22;25453;48.162;14.510;2023-04-24T04:33:02;15.10;72.70
39777;DHT22;25453;48.162;14.510;2023-04-24T04:35:29;15.10;72.80
39777;DHT22;25453;48.162;14.510;2023-04-24T04:37:57;15.10;72.90
39777;DHT22;25453;48.162;14.510;2023-04-24T04:40:27;15.00;72.90
39777;DHT22;25453;48.162;14.510;2023-04-24T04:42:55;15.00;72.80
39777;DHT22;25453;48.162;14.510;2023-04-24T04:45:22;15.00;72.70
39777;DHT22;25453;48.162;14.510;2023-04-24T04:47:51;15.00;72.70
39777;DHT22;25453;48.162;14.510;2023-04-24T04:50:18;15.00;72.70
39777;DHT22;25453;48.162;14.510;2023-04-24T04:52:46;14.90;72.60
39777;DHT22;25453;48.162;14.510;2023-04-24T04:55:14;14.90;72.50
39777;DHT22;25453;48.162;14.510;2023-04-24T04:57:41;14.90;72.40
39777;DHT22;25453;48.162;14.510;2023-04-24T05:00:09;14.90;72.40
39777;DHT22;25453;48.162;14.510;2023-04-24T05:02:38;14.90;72.30
39777;DHT22;25453;48.162;14.510;2023-04-24T05:05:07;14.80;72.20
39777;DHT22;25453;48.162;14.510;2023-04-24T05:07:35;14.80;72.10
39777;DHT22;25453;48.162;14.510;2023-04-24T05:10:03;14.80;72.10
39777;DHT22;25453;48.162;14.510;2023-04-24T05:12:30;14.80;72.00
39777;DHT22;25453;48.162;14.510;2023-04-24T05:14:57;14.80;72.00
39777;DHT22;25453;48.162;14.510;2023-04-24T05:17:24;14.80;72.00
39777;DHT22;25453;48.162;14.510;2023-04-24T05:19:53;14.80;72.00
39777;DHT22;25453;48.162;14.510;2023-04-24T05:22:20;14.70;72.00
39777;DHT22;25453;48.162;14.510;2023-04-24T05:24:48;14.70;71.80
39777;DHT22;25453;48.162;14.510;2023-04-24T05:27:16;14.70;71.70
39777;DHT22;25453;48.162;14.510;2023-04-24T05:29:43;14.70;71.60
39777;DHT22;25453;48.162;14.510;2023-04-24T05:32:10;14.60;71.70
39777;DHT22;25453;48.162;14.510;2023-04-24T05:34:38;14.60;71.70
39777;DHT22;25453;48.162;14.510;2023-04-24T05:37:05;14.60;71.60
39777;DHT22;25453;48.162;14.510;2023-04-24T05:39:38;14.60;71.60
39777;DHT22;25453;48.162;14.510;2023-04-24T05:42:05;14.60;71.70
39777;DHT22;25453;48.162;14.510;2023-04-24T05:44:32;14.60;71.70
39777;DHT22;25453;48.162;14.510;2023-04-24T05:47:00;14.50;71.60
39777;DHT22;25453;48.162;14.510;2023-04-24T05:49:27;14.50;71.80
39777;DHT22;25453;48.162;14.510;2023-04-24T05:51:55;14.50;71.90
39777;DHT22;25453;48.162;14.510;2023-04-24T05:54:23;14.50;71.80
39777;DHT22;25453;48.162;14.510;2023-04-24T05:56:50;14.50;71.90
39777;DHT22;25453;48.162;14.510;2023-04-24T05:59:17;14.50;72.00
39777;DHT22;25453;48.162;14.510;2023-04-24T06:01:46;14.50;71.90
39777;DHT22;25453;48.162;14.510;2023-04-24T06:04:13;14.40;71.70
39777;DHT22;25453;48.162;14.510;2023-04-24T06:06:41;14.40;71.90
39777;DHT22;25453;48.162;14.510;2023-04-24T06:09:09;14.40;72.30
39777;DHT22;25453;48.162;14.510;2023-04-24T06:11:36;14.40;72.40
39777;DHT22;25453;48.162;14.510;2023-04-24T06:14:03;14.40;72.40
39777;DHT22;25453;48.162;14.510;2023-04-24T06:16:30;14.40;72.50
39777;DHT22;25453;48.162;14.510;2023-04-24T06:18:58;14.30;72.70
39777;DHT22;25453;48.162;14.510;2023-04-24T06:21:26;14.30;72.80
39777;DHT22;25453;48.162;14.510;2023-04-24T06:23:54;14.30;73.00
39777;DHT22;25453;48.162;14.510;2023-04-24T06:26:22;14.20;73.10
39777;DHT22;25453;48.162;14.510;2023-04-24T06:28:51;14.20;73.30
39777;DHT22;25453;48.162;14.510;2023-04-24T06:31:20;14.10;73.50
39777;DHT22;25453;48.162;14.510;2023-04-24T06:33:48;14.10;73.70
39777;DHT22;25453;48.162;14.510;2023-04-24T06:36:16;14.10;73.90
39777;DHT22;25453;48.162;14.510;2023-04-24T06:38:43;14.10;74.00
39777;DHT22;25453;48.162;14.510;2023-04-24T06:41:11;14.00;74.20
39777;DHT22;25453;48.162;14.510;2023-04-24T06:43:38;14.00;74.30
39777;DHT22;25453;48.162;14.510;2023-04-24T06:46:05;14.00;74.40
39777;DHT22;25453;48.162;14.510;2023-04-24T06:48:34;14.00;74.60
39777;DHT22;25453;48.162;14.510;2023-04-24T06:51:01;14.00;74.80
39777;DHT22;25453;48.162;14.510;2023-04-24T06:53:28;14.00;74.80
39777;DHT22;25453;48.162;14.510;2023-04-24T06:55:56;14.00;74.80
39777;DHT22;25453;48.162;14.510;2023-04-24T06:58:24;14.00;74.70
39777;DHT22;25453;48.162;14.510;2023-04-24T07:00:51;13.90;74.80
39777;DHT22;25453;48.162;14.510;2023-04-24T07:03:19;13.90;75.10
39777;DHT22;25453;48.162;14.510;2023-04-24T07:05:46;14.00;75.30
39777;DHT22;25453;48.162;14.510;2023-04-24T07:08:14;14.00;75.40
39777;DHT22;25453;48.162;14.510;2023-04-24T07:10:44;14.00;75.50
39777;DHT22;25453;48.162;14.510;2023-04-24T07:13:12;14.00;75.50
39777;DHT22;25453;48.162;14.510;2023-04-24T07:15:39;14.10;75.50
39777;DHT22;25453;48.162;14.510;2023-04-24T07:18:08;14.10;75.50
39777;DHT22;25453;48.162;14.510;2023-04-24T07:20:37;14.10;75.40
39777;DHT22;25453;48.162;14.510;2023-04-24T07:23:08;14.10;75.50
39777;DHT22;25453;48.162;14.510;2023-04-24T07:25:35;14.00;75.60
39777;DHT22;25453;48.162;14.510;2023-04-24T07:28:02;14.00;75.70
39777;DHT22;25453;48.162;14.510;2023-04-24T07:30:31;14.00;75.90
39777;DHT22;25453;48.162;14.510;2023-04-24T07:32:59;14.00;76.20
39777;DHT22;25453;48.162;14.510;2023-04-24T07:35:27;14.00;76.20
39777;DHT22;25453;48.162;14.510;2023-04-24T07:37:54;14.00;76.30
39777;DHT22;25453;48.162;14.510;2023-04-24T07:40:24;14.00;76.60
39777;DHT22;25453;48.162;14.510;2023-04-24T07:42:51;14.00;76.70
39777;DHT22;25453;48.162;14.510;2023-04-24T07:45:18;14.00;76.70
39777;DHT22;25453;48.162;14.510;2023-04-24T07:47:45;14.00;76.70
39777;DHT22;25453;48.162;14.510;2023-04-24T07:50:14;14.00;76.80
39777;DHT22;25453;48.162;14.510;2023-04-24T07:52:41;14.00;76.90
39777;DHT22;25453;48.162;14.510;2023-04-24T07:55:08;14.00;77.00
39777;DHT22;25453;48.162;14.510;2023-04-24T07:57:36;14.00;77.10
39777;DHT22;25453;48.162;14.510;2023-04-24T08:00:04;14.00;77.10
39777;DHT22;25453;48.162;14.510;2023-04-24T08:02:32;14.10;77.20
39777;DHT22;25453;48.162;14.510;2023-04-24T08:04:59;14.10;77.10
39777;DHT22;25453;48.162;14.510;2023-04-24T08:07:27;14.10;77.00
39777;DHT22;25453;48.162;14.510;2023-04-24T08:09:55;14.10;77.10
39777;DHT22;25453;48.162;14.510;2023-04-24T08:12:23;14.10;77.20
39777;DHT22;25453;48.162;14.510;2023-04-24T08:14:50;14.20;77.30
39777;DHT22;25453;48.162;14.510;2023-04-24T08:17:18;14.20;77.20
39777;DHT22;25453;48.162;14.510;2023-04-24T08:19:46;14.20;77.10
39777;DHT22;25453;48.162;14.510;2023-04-24T08:22:15;14.20;77.20
39777;DHT22;25453;48.162;14.510;2023-04-24T08:24:42;14.30;77.20
39777;DHT22;25453;48.162;14.510;2023-04-24T08:27:10;14.30;77.10
39777;DHT22;25453;48.162;14.510;2023-04-24T08:29:37;14.30;77.30
39777;DHT22;25453;48.162;14.510;2023-04-24T08:32:06;14.30;76.80
39777;DHT22;25453;48.162;14.510;2023-04-24T08:34:33;14.30;77.10
39777;DHT22;25453;48.162;14.510;2023-04-24T08:37:02;14.30;76.90
39777;DHT22;25453;48.162;14.510;2023-04-24T08:39:29;14.30;77.00
39777;DHT22;25453;48.162;14.510;2023-04-24T08:41:56;14.30;76.90
39777;DHT22;25453;48.162;14.510;2023-04-24T08:44:32;14.40;77.00
39777;DHT22;25453;48.162;14.510;2023-04-24T08:47:01;14.30;76.70
39777;DHT22;25453;48.162;14.510;2023-04-24T08:49:31;14.30;76.60
39777;DHT22;25453;48.162;14.510;2023-04-24T08:51:58;14.30;76.80
39777;DHT22;25453;48.162;14.510;2023-04-24T08:54:27;14.30;77.00
39777;DHT22;25453;48.162;14.510;2023-04-24T08:56:57;14.30;77.10
39777;DHT22;25453;48.162;14.510;2023-04-24T08:59:25;14.30;77.20
39777;DHT22;25453;48.162;14.510;2023-04-24T09:01:53;14.40;77.40
39777;DHT22;25453;48.162;14.510;2023-04-24T09:04:21;14.40;77.00
39777;DHT22;25453;48.162;14.510;2023-04-24T09:06:56;14.40;77.10
39777;DHT22;25453;48.162;14.510;2023-04-24T09:09:24;14.40;77.20
39777;DHT22;25453;48.162;14.510;2023-04-24T09:11:52;14.40;77.30
39777;DHT22;25453;48.162;14.510;2023-04-24T09:14:22;14.40;77.30
39777;DHT22;25453;48.162;14.510;2023-04-24T09:16:50;14.40;77.10
39777;DHT22;25453;48.162;14.510;2023-04-24T09:19:18;14.40;77.10
39777;DHT22;25453;48.162;14.510;2023-04-24T09:21:45;14.40;77.30
39777;DHT22;25453;48.162;14.510;2023-04-24T09:24:17;14.40;77.40
39777;DHT22;25453;48.162;14.510;2023-04-24T09:26:44;14.40;77.50
39777;DHT22;25453;48.162;14.510;2023-04-24T09:29:15;14.40;77.40
39777;DHT22;25453;48.162;14.510;2023-04-24T09:31:44;14.40;77.50
39777;DHT22;25453;48.162;14.510;2023-04-24T09:34:12;14.40;77.40
39777;DHT22;25453;48.162;14.510;2023-04-24T09:36:42;14.40;77.30
39777;DHT22;25453;48.162;14.510;2023-04-24T09:39:13;14.40;77.10
39777;DHT22;25453;48.162;14.510;2023-04-24T09:41:44;14.40;77.10
39777;DHT22;25453;48.162;14.510;2023-04-24T09:44:13;14.40;77.20
39777;DHT22;25453;48.162;14.510;2023-04-24T09:46:41;14.40;77.40
39777;DHT22;25453;48.162;14.510;2023-04-24T09:49:13;14.50;77.60
39777;DHT22;25453;48.162;14.510;2023-04-24T09:51:44;14.50;77.60
39777;DHT22;25453;48.162;14.510;2023-04-24T09:54:19;14.50;77.60
39777;DHT22;25453;48.162;14.510;2023-04-24T09:56:50;14.60;77.50
39777;DHT22;25453;48.162;14.510;2023-04-24T09:59:18;14.60;77.40
39777;DHT22;25453;48.162;14.510;2023-04-24T10:01:45;14.60;77.40
39777;DHT22;25453;48.162;14.510;2023-04-24T10:04:19;14.60;77.30
39777;DHT22;25453;48.162;14.510;2023-04-24T10:06:47;14.70;77.30
39777;DHT22;25453;48.162;14.510;2023-04-24T10:09:16;14.60;77.40
39777;DHT22;25453;48.162;14.510;2023-04-24T10:11:44;14.70;77.50
39777;DHT22;25453;48.162;14.510;2023-04-24T10:14:13;14.70;77.30
39777;DHT22;25453;48.162;14.510;2023-04-24T10:16:41;14.80;77.50
39777;DHT22;25453;48.162;14.510;2023-04-24T10:19:08;14.80;77.40
39777;DHT22;25453;48.162;14.510;2023-04-24T10:21:37;14.90;77.10
39777;DHT22;25453;48.162;14.510;2023-04-24T10:24:16;14.90;77.20
39777;DHT22;25453;48.162;14.510;2023-04-24T10:26:45;15.00;77.00
39777;DHT22;25453;48.162;14.510;2023-04-24T10:29:13;15.00;76.90
39777;DHT22;25453;48.162;14.510;2023-04-24T10:31:42;15.00;76.90
39777;DHT22;25453;48.162;14.510;2023-04-24T10:34:13;15.10;76.70
39777;DHT22;25453;48.162;14.510;2023-04-24T10:36:46;15.20;76.80
39777;DHT22;25453;48.162;14.510;2023-04-24T10:39:15;15.20;76.60
39777;DHT22;25453;48.162;14.510;2023-04-24T10:41:43;15.30;76.50
39777;DHT22;25453;48.162;14.510;2023-04-24T10:44:13;15.40;76.10
39777;DHT22;25453;48.162;14.510;2023-04-24T10:46:45;15.40;75.70
39777;DHT22;25453;48.162;14.510;2023-04-24T10:49:14;15.40;75.50
39777;DHT22;25453;48.162;14.510;2023-04-24T10:51:46;15.30;75.30
39777;DHT22;25453;48.162;14.510;2023-04-24T10:54:23;15.30;74.90
39777;DHT22;25453;48.162;14.510;2023-04-24T10:56:51;15.20;75.00
39777;DHT22;25453;48.162;14.510;2023-04-24T10:59:25;15.10;75.30
39777;DHT22;25453;48.162;14.510;2023-04-24T11:01:53;15.10;75.50
39777;DHT22;25453;48.162;14.510;2023-04-24T11:04:31;15.10;75.80
39777;DHT22;25453;48.162;14.510;2023-04-24T11:06:58;15.10;76.10
39777;DHT22;25453;48.162;14.510;2023-04-24T11:09:27;15.20;76.30
39777;DHT22;25453;48.162;14.510;2023-04-24T11:12:04;15.20;76.50
39777;DHT22;25453;48.162;14.510;2023-04-24T11:17:35;15.30;76.50
39777;DHT22;25453;48.162;14.510;2023-04-24T11:20:05;15.40;76.50
39777;DHT22;25453;48.162;14.510;2023-04-24T11:22:53;15.40;76.50
39777;DHT22;25453;48.162;14.510;2023-04-24T11:25:22;15.50;76.70
39777;DHT22;25453;48.162;14.510;2023-04-24T11:27:49;15.60;76.50
39777;DHT22;25453;48.162;14.510;2023-04-24T11:30:17;15.70;76.40
39777;DHT22;25453;48.162;14.510;2023-04-24T11:32:49;15.70;76.10
39777;DHT22;25453;48.162;14.510;2023-04-24T11:37:46;15.60;75.10
39777;DHT22;25453;48.162;14.510;2023-04-24T11:40:33;15.60;75.10
39777;DHT22;25453;48.162;14.510;2023-04-24T11:43:00;15.60;75.30
39777;DHT22;25453;48.162;14.510;2023-04-24T11:45:29;15.50;75.50
39777;DHT22;25453;48.162;14.510;2023-04-24T11:47:57;15.50;75.40
39777;DHT22;25453;48.162;14.510;2023-04-24T11:50:26;15.50;75.40
39777;DHT22;25453;48.162;14.510;2023-04-24T11:52:55;15.60;75.20
39777;DHT22;25453;48.162;14.510;2023-04-24T11:55:24;15.50;75.10
39777;DHT22;25453;48.162;14.510;2023-04-24T11:57:58;15.50;75.30
39777;DHT22;25453;48.162;14.510;2023-04-24T12:00:27;15.60;75.50
39777;DHT22;25453;48.162;14.510;2023-04-24T12:03:08;15.60;75.70
39777;DHT22;25453;48.162;14.510;2023-04-24T12:05:36;15.70;75.40
39777;DHT22;25453;48.162;14.510;2023-04-24T12:08:04;15.80;75.20
39777;DHT22;25453;48.162;14.510;2023-04-24T12:10:32;15.80;75.20
39777;DHT22;25453;48.162;14.510;2023-04-24T12:12:59;15.90;75.30
39777;DHT22;25453;48.162;14.510;2023-04-24T12:15:27;15.90;75.20
39777;DHT22;25453;48.162;14.510;2023-04-24T12:17:55;16.00;75.10
39777;DHT22;25453;48.162;14.510;2023-04-24T12:20:24;16.10;74.40
39777;DHT22;25453;48.162;14.510;2023-04-24T12:22:56;16.10;74.10
39777;DHT22;25453;48.162;14.510;2023-04-24T12:25:25;16.10;73.80
39777;DHT22;25453;48.162;14.510;2023-04-24T12:27:54;16.00;73.60
39777;DHT22;25453;48.162;14.510;2023-04-24T12:30:26;16.00;73.40
39777;DHT22;25453;48.162;14.510;2023-04-24T12:32:56;16.00;73.30
39777;DHT22;25453;48.162;14.510;2023-04-24T12:35:24;15.90;73.40
39777;DHT22;25453;48.162;14.510;2023-04-24T12:37:53;15.90;73.50
39777;DHT22;25453;48.162;14.510;2023-04-24T12:40:20;16.00;73.50
39777;DHT22;25453;48.162;14.510;2023-04-24T12:42:49;15.90;73.40
39777;DHT22;25453;48.162;14.510;2023-04-24T12:45:17;15.90;72.80
39777;DHT22;25453;48.162;14.510;2023-04-24T12:47:45;15.80;72.40
39777;DHT22;25453;48.162;14.510;2023-04-24T12:50:14;15.60;72.10
39777;DHT22;25453;48.162;14.510;2023-04-24T12:52:42;15.40;71.90
39777;DHT22;25453;48.162;14.510;2023-04-24T12:55:12;15.10;72.00
39777;DHT22;25453;48.162;14.510;2023-04-24T12:57:40;14.90;72.10
39777;DHT22;25453;48.162;14.510;2023-04-24T13:00:08;14.60;72.20
39777;DHT22;25453;48.162;14.510;2023-04-24T13:02:35;14.40;72.30
39777;DHT22;25453;48.162;14.510;2023-04-24T13:05:03;14.30;72.50
39777;DHT22;25453;48.162;14.510;2023-04-24T13:07:31;14.10;72.80
39777;DHT22;25453;48.162;14.510;2023-04-24T13:09:58;14.00;73.00
39777;DHT22;25453;48.162;14.510;2023-04-24T13:12:26;13.90;73.40
39777;DHT22;25453;48.162;14.510;2023-04-24T13:14:53;13.80;73.50
39777;DHT22;25453;48.162;14.510;2023-04-24T13:17:21;13.80;73.80
39777;DHT22;25453;48.162;14.510;2023-04-24T13:19:49;13.70;74.00
39777;DHT22;25453;48.162;14.510;2023-04-24T13:22:17;13.70;74.40
39777;DHT22;25453;48.162;14.510;2023-04-24T13:24:46;13.70;75.00
39777;DHT22;25453;48.162;14.510;2023-04-24T13:27:16;13.70;75.10
39777;DHT22;25453;48.162;14.510;2023-04-24T13:29:43;13.70;75.10
39777;DHT22;25453;48.162;14.510;2023-04-24T13:32:11;13.70;75.60
39777;DHT22;25453;48.162;14.510;2023-04-24T13:34:44;13.70;75.90
39777;DHT22;25453;48.162;14.510;2023-04-24T13:37:11;13.60;76.00
39777;DHT22;25453;48.162;14.510;2023-04-24T13:39:38;13.70;76.20
39777;DHT22;25453;48.162;14.510;2023-04-24T13:42:06;13.70;76.30
39777;DHT22;25453;48.162;14.510;2023-04-24T13:44:33;13.70;76.60
39777;DHT22;25453;48.162;14.510;2023-04-24T13:47:00;13.80;76.70
39777;DHT22;25453;48.162;14.510;2023-04-24T13:49:28;13.90;76.90
39777;DHT22;25453;48.162;14.510;2023-04-24T13:51:59;13.90;76.90
39777;DHT22;25453;48.162;14.510;2023-04-24T13:54:27;14.00;77.10
39777;DHT22;25453;48.162;14.510;2023-04-24T13:56:56;14.00;76.70
39777;DHT22;25453;48.162;14.510;2023-04-24T13:59:24;14.10;76.70
39777;DHT22;25453;48.162;14.510;2023-04-24T14:01:56;14.10;76.60
39777;DHT22;25453;48.162;14.510;2023-04-24T14:04:25;14.10;76.80
39777;DHT22;25453;48.162;14.510;2023-04-24T14:06:54;14.20;76.90
39777;DHT22;25453;48.162;14.510;2023-04-24T14:09:22;14.30;76.90
39777;DHT22;25453;48.162;14.510;2023-04-24T14:11:51;14.40;76.80
39777;DHT22;25453;48.162;14.510;2023-04-24T14:14:18;14.40;76.60
39777;DHT22;25453;48.162;14.510;2023-04-24T14:16:46;14.50;76.40
39777;DHT22;25453;48.162;14.510;2023-04-24T14:19:13;14.50;76.40
39777;DHT22;25453;48.162;14.510;2023-04-24T14:21:40;14.50;76.40
39777;DHT22;25453;48.162;14.510;2023-04-24T14:24:08;14.60;76.40
39777;DHT22;25453;48.162;14.510;2023-04-24T14:26:35;14.70;76.40
39777;DHT22;25453;48.162;14.510;2023-04-24T14:29:02;14.70;76.20
39777;DHT22;25453;48.162;14.510;2023-04-24T14:31:40;14.80;76.10
39777;DHT22;25453;48.162;14.510;2023-04-24T14:34:08;14.90;76.10
39777;DHT22;25453;48.162;14.510;2023-04-24T14:36:37;14.90;75.60
39777;DHT22;25453;48.162;14.510;2023-04-24T14:39:05;14.90;75.70
39777;DHT22;25453;48.162;14.510;2023-04-24T14:41:34;15.00;75.80
39777;DHT22;25453;48.162;14.510;2023-04-24T14:44:03;15.10;75.80
39777;DHT22;25453;48.162;14.510;2023-04-24T14:46:31;15.20;75.60
39777;DHT22;25453;48.162;14.510;2023-04-24T14:48:58;15.20;75.30
39777;DHT22;25453;48.162;14.510;2023-04-24T14:51:25;15.20;75.10
39777;DHT22;25453;48.162;14.510;2023-04-24T14:53:53;15.20;74.60
39777;DHT22;25453;48.162;14.510;2023-04-24T14:56:21;15.20;74.70
39777;DHT22;25453;48.162;14.510;2023-04-24T14:58:48;15.20;74.70
39777;DHT22;25453;48.162;14.510;2023-04-24T15:01:16;15.20;74.60
39777;DHT22;25453;48.162;14.510;2023-04-24T15:03:43;15.20;74.60
39777;DHT22;25453;48.162;14.510;2023-04-24T15:06:12;15.20;74.30
39777;DHT22;25453;48.162;14.510;2023-04-24T15:08:40;15.20;74.30
39777;DHT22;25453;48.162;14.510;2023-04-24T15:11:09;15.20;74.20
39777;DHT22;25453;48.162;14.510;2023-04-24T15:13:37;15.20;74.00
39777;DHT22;25453;48.162;14.510;2023-04-24T15:16:05;15.10;73.70
39777;DHT22;25453;48.162;14.510;2023-04-24T15:18:32;15.10;73.70
39777;DHT22;25453;48.162;14.510;2023-04-24T15:20:59;14.90;73.10
39777;DHT22;25453;48.162;14.510;2023-04-24T15:23:26;14.70;73.10
39777;DHT22;25453;48.162;14.510;2023-04-24T15:25:54;14.50;73.40
39777;DHT22;25453;48.162;14.510;2023-04-24T15:28:21;14.30;73.80